Cottonwood, AZ (86326)

9:35 AM MST on September 23, 2014 (GMT -0700)
Verde Village Unit # 6 | Change Station
CLOSE
Current Station
Personal Weather Station
Location: Cottonwood, AZ
Elevation: 3485 ft
Nearby Weather Stations

Elev 3485 ft 34.70 °N, 112.01 °W | Updated 7 seconds ago

Clear
Clear
74.4 °F
Feels Like 77 °F
N
0.0
Wind Variable Wind from NE
Gusts 7.3 mph

Today
High -- | Low -- °F
--% Chance of Precip.
Yesterday
High -- | Low -- °F
Precip. -- in
6:16 AM 6:23 PM
Waning Crescent, 0% visible
Pressure 30.24 in
Visibility 10.0 miles
Clouds Clear
Heat Index 77 °F
Dew Point 50 °F
Humidity 42%
Rainfall 0.00 in
Snow Depth 2 in , 0 in , 0 in
UV 4 out of 12
Pollen 6.80 out of 12
Air Quality Not available.
Flu Activity Not available.
METAR KSEZ 231615Z AUTO 14003KT 10SM CLR 23/09 A3024 RMK AO2

More Conditions Fewer Conditions

Pressure 30.24 in
Visibility 10.0 miles
Clouds Clear
Heat Index 77 °F
Dew Point 50 °F
Humidity 42%
Rainfall 0.00 in
Snow Depth 2 in , 0 in , 0 in
UV 4 out of 12
Pollen 6.80 out of 12
Air Quality Not available.
Flu Activity Not available.
METAR KSEZ 231615Z AUTO 14003KT 10SM CLR 23/09 A3024 RMK AO2

More Conditions Fewer Conditions

10-Day Weather Forecast

Almanac

Astronomy

Sep. 23, 2014 Rise Set
Actual Time 6:16 AM MST 6:23 PM MST
Civil Twilight 5:51 AM MST 6:48 PM MST
Nautical Twilight 5:22 AM MST 7:17 PM MST
Astronomical Twilight 4:52 AM MST 7:47 PM MST
Moon 5:44 AM MST 6:04 PM MST
Length of Visible Light 12h 56m
Length of Day
12h 06m
Tomorrow will be 2m 10s shorter.
Waning Crescent, 0% of the Moon is Illuminated
Today
Waning Crescent
Sep 24
New
Oct 1
First Quarter
Oct 8
Full
Oct 15
Last Quarter

Today's Extremes

State Highs State Lows

Community

WunderPhotos

Upload Photos

1,755,744 photos uploaded!

WunderBlogs® & News

By Dr. Jeff Masters
Director of Meteorology, Weather Underground
By Kari Strenfel
Meteorologist, Weather Underground
By Christopher C. Burt
Weather Historian, Weather Underground
September 23, 2014
September 23, 2014
September 23, 2014

Nearby

Snow Depth

Station Depth Elevation
Workman Creek 2 in 6900 ft
Wildcat 0 in 7850 ft
White Horse Lake 0 in 7180 ft
Snowslide Canyon 0 in 9730 ft
Mormon Mountain 0 in 7500 ft

Earthquake Activity

City Distance Mag. Time & Date
No recent earthquake activity has been reported nearby.
Minimum magnitude displayed is 2.5.

Coastal Water Temperatures

Place Temperature
No Stations Reporting

Nearby Weather Stations